createdAt,value
2022-09-25T00:02:15.144Z,11.53
2022-09-25T00:07:07.372Z,11.51
2022-09-25T00:11:57.047Z,11.49
2022-09-25T00:16:46.716Z,11.47
2022-09-25T00:21:37.789Z,11.43
2022-09-25T00:26:31.726Z,11.41
2022-09-25T00:31:24.706Z,11.35
2022-09-25T00:36:15.552Z,11.33
2022-09-25T00:41:06.283Z,11.27
2022-09-25T00:45:59.078Z,11.23
2022-09-25T00:50:54.348Z,11.20
2022-09-25T00:55:47.050Z,11.13
2022-09-25T01:00:37.268Z,11.16
2022-09-25T01:05:33.290Z,11.14
2022-09-25T01:10:24.250Z,11.17
2022-09-25T01:15:15.868Z,11.10
2022-09-25T01:20:17.748Z,11.13
2022-09-25T01:25:18.055Z,11.11
2022-09-25T01:30:13.886Z,11.10
2022-09-25T01:35:06.553Z,11.07
2022-09-25T01:40:04.727Z,11.08
2022-09-25T01:45:00.000Z,11.05
2022-09-25T01:49:56.515Z,11.04
2022-09-25T01:54:51.948Z,11.00
2022-09-25T01:59:46.942Z,10.94
2022-09-25T02:04:40.174Z,10.93
2022-09-25T02:09:37.627Z,10.92
2022-09-25T02:14:32.442Z,10.87
2022-09-25T02:19:35.091Z,10.85
2022-09-25T02:24:29.642Z,10.81
2022-09-25T02:29:23.339Z,10.77
2022-09-25T02:34:15.459Z,10.73
2022-09-25T02:39:08.144Z,10.68
2022-09-25T02:44:15.559Z,10.64
2022-09-25T02:49:19.243Z,10.59
2022-09-25T02:54:18.580Z,10.55
2022-09-25T02:59:11.588Z,10.51
2022-09-25T03:04:03.616Z,10.46
2022-09-25T03:08:59.530Z,10.42
2022-09-25T03:13:57.528Z,10.40
2022-09-25T03:18:47.367Z,10.34
2022-09-25T03:23:37.027Z,10.30
2022-09-25T03:28:29.650Z,10.27
2022-09-25T03:33:19.388Z,10.24
2022-09-25T03:38:10.413Z,10.28
2022-09-25T03:43:00.145Z,10.25
2022-09-25T03:47:52.391Z,10.27
2022-09-25T03:52:42.055Z,10.26
2022-09-25T03:57:31.696Z,10.32
2022-09-25T04:02:21.511Z,10.35
2022-09-25T04:07:14.009Z,10.39
2022-09-25T04:12:05.594Z,10.44
2022-09-25T04:16:55.289Z,10.46
2022-09-25T04:21:44.877Z,10.53
2022-09-25T04:26:37.662Z,10.57
2022-09-25T04:31:27.468Z,10.56
2022-09-25T04:36:19.079Z,10.46
2022-09-25T04:41:11.156Z,10.50
2022-09-25T04:46:07.454Z,10.45
2022-09-25T04:50:58.358Z,10.37
2022-09-25T04:55:49.403Z,10.30
2022-09-25T05:00:41.041Z,10.29
2022-09-25T05:05:34.900Z,10.21
2022-09-25T05:10:27.450Z,10.15
2022-09-25T05:15:18.716Z,10.12
2022-09-25T05:20:11.642Z,10.06
2022-09-25T05:25:04.968Z,10.02
2022-09-25T05:29:55.566Z,9.98
2022-09-25T05:34:46.369Z,9.92
2022-09-25T05:39:36.919Z,9.88
2022-09-25T05:44:30.138Z,9.82
2022-09-25T05:49:21.094Z,9.81
2022-09-25T05:54:13.568Z,9.79
2022-09-25T05:59:03.712Z,9.79
2022-09-25T06:03:56.822Z,9.79
2022-09-25T06:08:47.831Z,9.77
2022-09-25T06:13:38.325Z,9.72
2022-09-25T06:18:31.719Z,9.74
2022-09-25T06:23:25.707Z,9.75
2022-09-25T06:28:16.436Z,9.74
2022-09-25T06:33:10.988Z,9.79
2022-09-25T06:38:05.698Z,9.86
2022-09-25T06:43:00.975Z,9.96
2022-09-25T06:47:51.743Z,10.07
2022-09-25T06:52:45.667Z,10.12
2022-09-25T06:57:38.522Z,10.24
2022-09-25T07:02:44.705Z,10.40
2022-09-25T07:07:35.112Z,10.59
2022-09-25T07:12:25.324Z,10.79
2022-09-25T07:17:15.838Z,10.91
2022-09-25T07:22:09.512Z,11.09
2022-09-25T07:27:01.672Z,11.25
2022-09-25T07:31:52.554Z,11.39
2022-09-25T07:36:44.579Z,11.49
2022-09-25T07:41:37.935Z,11.67
2022-09-25T07:46:29.524Z,11.79
2022-09-25T07:51:22.268Z,11.94
2022-09-25T07:56:13.727Z,12.03
2022-09-25T08:01:11.696Z,12.13
2022-09-25T08:06:15.248Z,12.25
2022-09-25T08:11:11.452Z,12.32
2022-09-25T08:16:02.323Z,12.43
2022-09-25T08:20:57.842Z,12.48
2022-09-25T08:25:51.541Z,12.49
2022-09-25T08:30:44.022Z,12.53
2022-09-25T08:35:34.565Z,12.59
2022-09-25T08:40:32.129Z,12.73
2022-09-25T08:45:43.829Z,12.99
2022-09-25T08:50:34.010Z,13.35
2022-09-25T08:55:53.047Z,13.64
2022-09-25T09:00:43.571Z,13.86
2022-09-25T09:05:38.051Z,14.06
2022-09-25T09:10:38.989Z,14.22
2022-09-25T09:15:37.917Z,14.25
2022-09-25T09:20:39.937Z,14.40
2022-09-25T09:25:45.340Z,14.59
2022-09-25T09:30:41.195Z,14.63
2022-09-25T09:35:45.773Z,15.05
2022-09-25T09:41:01.416Z,15.54
2022-09-25T09:46:02.270Z,15.89
2022-09-25T09:50:56.312Z,16.32
2022-09-25T09:55:53.646Z,16.67
2022-09-25T10:00:45.539Z,16.79
2022-09-25T10:05:41.904Z,17.00
2022-09-25T10:10:39.873Z,17.39
2022-09-25T10:15:38.703Z,17.84
2022-09-25T10:20:36.710Z,18.13
2022-09-25T10:25:39.939Z,18.63
2022-09-25T10:30:32.991Z,18.67
2022-09-25T10:35:28.254Z,18.45
2022-09-25T10:40:31.790Z,18.05
2022-09-25T10:45:34.810Z,17.68
2022-09-25T10:50:27.263Z,17.53
2022-09-25T10:55:25.788Z,17.13
2022-09-25T11:00:24.938Z,16.79
2022-09-25T11:05:22.763Z,16.46
2022-09-25T11:10:23.529Z,16.27
2022-09-25T11:15:22.057Z,16.36
2022-09-25T11:20:30.634Z,16.65
2022-09-25T11:25:25.659Z,17.03
2022-09-25T11:30:19.205Z,17.37
2022-09-25T11:35:32.188Z,17.67
2022-09-25T11:40:47.676Z,18.06
2022-09-25T11:45:43.948Z,18.13
2022-09-25T11:50:44.601Z,17.76
2022-09-25T11:55:58.133Z,17.38
2022-09-25T12:01:00.634Z,16.97
2022-09-25T12:06:07.864Z,16.86
2022-09-25T12:11:05.492Z,16.72
2022-09-25T12:16:04.101Z,16.64
2022-09-25T12:21:03.994Z,16.84
2022-09-25T12:26:06.983Z,17.27
2022-09-25T12:31:09.681Z,17.65
2022-09-25T12:36:11.149Z,17.94
2022-09-25T12:41:10.805Z,18.12
2022-09-25T12:46:11.363Z,18.32
2022-09-25T12:51:10.603Z,18.28
2022-09-25T12:56:07.152Z,18.23
2022-09-25T13:01:06.264Z,18.03
2022-09-25T13:06:06.149Z,17.67
2022-09-25T13:11:15.734Z,17.49
2022-09-25T13:16:06.609Z,17.31
2022-09-25T13:20:58.536Z,17.16
2022-09-25T13:25:59.894Z,17.15
2022-09-25T13:31:11.341Z,17.43
2022-09-25T13:36:33.702Z,17.40
2022-09-25T13:41:23.886Z,17.18
2022-09-25T13:46:34.098Z,17.10
2022-09-25T13:51:38.702Z,16.94
2022-09-25T13:56:30.341Z,16.83
2022-09-25T14:01:37.907Z,16.76
2022-09-25T14:06:38.331Z,16.55
2022-09-25T14:11:34.173Z,16.41
2022-09-25T14:16:38.563Z,16.35
2022-09-25T14:21:36.511Z,16.49
2022-09-25T14:26:29.281Z,16.69
2022-09-25T14:31:40.427Z,16.79
2022-09-25T14:36:45.665Z,16.78
2022-09-25T14:42:18.871Z,16.66
2022-09-25T14:47:13.359Z,16.46
2022-09-25T14:52:11.560Z,16.37
2022-09-25T14:57:05.511Z,16.40
2022-09-25T15:01:56.110Z,16.38
2022-09-25T15:06:46.881Z,16.44
2022-09-25T15:11:46.718Z,16.48
2022-09-25T15:16:49.219Z,16.50
2022-09-25T15:21:39.627Z,16.51
2022-09-25T15:26:31.077Z,16.53
2022-09-25T15:31:25.791Z,16.50
2022-09-25T15:36:21.898Z,16.38
2022-09-25T15:41:16.233Z,16.15
2022-09-25T15:46:39.701Z,16.12
2022-09-25T15:51:33.628Z,16.01
2022-09-25T15:56:26.531Z,15.95
2022-09-25T16:01:31.706Z,15.85
2022-09-25T16:06:24.028Z,15.86
2022-09-25T16:11:23.833Z,15.82
2022-09-25T16:16:21.122Z,15.79
2022-09-25T16:21:24.617Z,15.77
2022-09-25T16:26:22.197Z,15.73
2022-09-25T16:31:13.108Z,15.69
2022-09-25T16:36:15.837Z,15.66
2022-09-25T16:41:21.534Z,15.60
2022-09-25T16:46:17.828Z,15.58
2022-09-25T16:51:11.288Z,15.55
2022-09-25T16:56:01.426Z,15.48
2022-09-25T17:00:53.980Z,15.45
2022-09-25T17:05:43.678Z,15.40
2022-09-25T17:10:33.885Z,15.34
2022-09-25T17:15:26.458Z,15.27
2022-09-25T17:20:18.820Z,15.25
2022-09-25T17:25:22.342Z,15.22
2022-09-25T17:30:13.161Z,15.17
2022-09-25T17:35:04.099Z,15.14
2022-09-25T17:39:56.464Z,15.08
2022-09-25T17:44:49.318Z,15.06
2022-09-25T17:49:39.237Z,15.03
2022-09-25T17:54:31.142Z,14.99
2022-09-25T17:59:23.393Z,14.92
2022-09-25T18:04:21.978Z,14.89
2022-09-25T18:09:11.732Z,14.86
2022-09-25T18:14:02.090Z,14.82
2022-09-25T18:19:06.780Z,14.77
2022-09-25T18:23:56.665Z,14.75
2022-09-25T18:28:46.403Z,14.74
2022-09-25T18:33:36.090Z,14.72
2022-09-25T18:38:28.364Z,14.66
2022-09-25T18:43:18.337Z,14.72
2022-09-25T18:48:08.343Z,14.70
2022-09-25T18:53:01.085Z,14.65
2022-09-25T18:57:53.468Z,14.61
2022-09-25T19:02:43.268Z,14.52
2022-09-25T19:07:33.810Z,14.41
2022-09-25T19:12:24.394Z,14.33
2022-09-25T19:17:17.374Z,14.25
2022-09-25T19:22:06.982Z,14.22
2022-09-25T19:26:57.060Z,14.13
2022-09-25T19:31:46.985Z,14.07
2022-09-25T19:36:39.436Z,14.01
2022-09-25T19:41:31.261Z,13.96
2022-09-25T19:46:21.615Z,13.89
2022-09-25T19:51:11.825Z,13.80
2022-09-25T19:56:04.849Z,13.78
2022-09-25T20:00:56.920Z,13.72
2022-09-25T20:05:49.451Z,13.68
2022-09-25T20:10:40.591Z,13.60
2022-09-25T20:15:33.837Z,13.59
2022-09-25T20:20:23.664Z,13.60
2022-09-25T20:25:13.939Z,13.63
2022-09-25T20:30:03.712Z,13.60
2022-09-25T20:34:56.065Z,13.57
2022-09-25T20:39:45.849Z,13.50
2022-09-25T20:44:35.500Z,13.48
2022-09-25T20:49:25.142Z,13.49
2022-09-25T20:54:17.310Z,13.42
2022-09-25T20:59:08.022Z,13.43
2022-09-25T21:03:58.417Z,13.43
2022-09-25T21:08:48.524Z,13.40
2022-09-25T21:13:42.872Z,13.43
2022-09-25T21:18:35.196Z,13.41
2022-09-25T21:23:25.262Z,13.41
2022-09-25T21:28:14.964Z,13.42
2022-09-25T21:33:07.252Z,13.39
2022-09-25T21:37:56.900Z,13.33
2022-09-25T21:42:46.711Z,13.32
2022-09-25T21:47:37.258Z,13.30
2022-09-25T21:52:31.429Z,13.34
2022-09-25T21:57:27.358Z,13.30
2022-09-25T22:02:17.375Z,13.24
2022-09-25T22:07:07.821Z,13.23
2022-09-25T22:12:01.474Z,13.17
2022-09-25T22:16:53.159Z,13.18
2022-09-25T22:21:43.999Z,13.15
2022-09-25T22:26:34.344Z,13.18
2022-09-25T22:31:29.268Z,13.17
2022-09-25T22:36:18.946Z,13.19
2022-09-25T22:41:10.274Z,13.19
2022-09-25T22:46:00.220Z,13.15
2022-09-25T22:50:59.159Z,13.20
2022-09-25T22:55:49.445Z,13.19
2022-09-25T23:00:41.101Z,13.07
2022-09-25T23:05:31.397Z,13.19
2022-09-25T23:10:24.649Z,13.19
2022-09-25T23:15:15.512Z,13.18
2022-09-25T23:20:06.548Z,13.15
2022-09-25T23:24:56.548Z,13.19
2022-09-25T23:29:48.839Z,13.22
2022-09-25T23:34:38.832Z,13.21
2022-09-25T23:39:28.523Z,13.20
2022-09-25T23:44:18.161Z,13.24
2022-09-25T23:49:11.508Z,13.23
2022-09-25T23:54:02.916Z,13.21
2022-09-25T23:58:53.595Z,13.22
